createdAt,value
2022-08-11T00:01:36.710Z,50.27
2022-08-11T00:04:39.874Z,50.29
2022-08-11T00:07:56.222Z,50.72
2022-08-11T00:11:02.557Z,50.54
2022-08-11T00:14:12.948Z,50.81
2022-08-11T00:17:17.131Z,50.79
2022-08-11T00:20:20.076Z,51.03
2022-08-11T00:23:22.188Z,50.88
2022-08-11T00:26:26.896Z,51.38
2022-08-11T00:29:29.329Z,51.38
2022-08-11T00:32:31.772Z,51.84
2022-08-11T00:35:51.815Z,51.51
2022-08-11T00:39:04.487Z,51.15
2022-08-11T00:42:26.472Z,51.23
2022-08-11T00:46:05.478Z,52.21
2022-08-11T00:49:07.137Z,51.63
2022-08-11T00:52:33.790Z,52.63
2022-08-11T00:56:09.638Z,52.24
2022-08-11T00:59:35.012Z,52.66
2022-08-11T01:03:14.473Z,52.65
2022-08-11T01:06:38.446Z,53.74
2022-08-11T01:09:53.625Z,53.64
2022-08-11T01:13:17.081Z,53.81
2022-08-11T01:16:43.243Z,54.38
2022-08-11T01:20:45.325Z,53.99
2022-08-11T01:23:24.878Z,54.45
2022-08-11T01:27:19.151Z,54.89
2022-08-11T01:30:56.611Z,54.67
2022-08-11T01:34:23.044Z,55.19
2022-08-11T01:37:52.967Z,55.58
2022-08-11T01:41:52.147Z,55.16
2022-08-11T01:45:03.498Z,55.67
2022-08-11T01:48:15.808Z,55.64
2022-08-11T01:51:43.245Z,55.15
2022-08-11T01:55:02.023Z,55.91
2022-08-11T01:58:44.182Z,55.71
2022-08-11T02:02:04.158Z,55.04
2022-08-11T02:05:41.287Z,55.67
2022-08-11T02:08:51.389Z,55.50
2022-08-11T02:11:59.811Z,55.49
2022-08-11T02:15:10.090Z,55.84
2022-08-11T02:18:52.903Z,55.47
2022-08-11T02:22:20.500Z,56.54
2022-08-11T02:25:31.291Z,57.17
2022-08-11T02:28:57.463Z,57.43
2022-08-11T02:32:36.299Z,56.67
2022-08-11T02:35:51.649Z,57.50
2022-08-11T02:39:09.750Z,56.99
2022-08-11T02:42:35.486Z,57.82
2022-08-11T02:45:46.301Z,57.79
2022-08-11T02:49:17.951Z,58.44
2022-08-11T02:52:45.463Z,58.42
2022-08-11T02:56:03.335Z,56.74
2022-08-11T02:59:43.788Z,59.11
2022-08-11T03:02:51.693Z,58.40
2022-08-11T03:06:00.290Z,58.93
2022-08-11T03:09:17.867Z,58.78
2022-08-11T03:12:53.447Z,59.72
2022-08-11T03:16:42.928Z,59.07
2022-08-11T03:20:00.209Z,59.37
2022-08-11T03:23:30.052Z,59.69
2022-08-11T03:26:47.415Z,59.59
2022-08-11T03:30:04.786Z,59.91
2022-08-11T03:33:41.666Z,59.95
2022-08-11T03:37:34.370Z,60.40
2022-08-11T03:42:01.855Z,60.38
2022-08-11T03:45:41.643Z,61.16
2022-08-11T03:49:11.927Z,61.32
2022-08-11T03:52:23.394Z,61.06
2022-08-11T03:55:34.731Z,59.94
2022-08-11T03:58:57.744Z,60.19
2022-08-11T04:02:18.407Z,59.56
2022-08-11T04:05:58.808Z,60.05
2022-08-11T04:09:13.276Z,60.18
2022-08-11T04:12:35.892Z,59.75
2022-08-11T04:16:12.887Z,59.37
2022-08-11T04:19:42.614Z,58.69
2022-08-11T04:23:03.418Z,55.67
2022-08-11T04:26:20.254Z,52.50
2022-08-11T04:30:03.961Z,51.54
2022-08-11T04:33:38.247Z,49.20
2022-08-11T04:37:25.803Z,48.01
2022-08-11T04:40:30.254Z,47.38
2022-08-11T04:44:04.587Z,48.72
2022-08-11T04:48:12.451Z,50.64
2022-08-11T04:51:58.361Z,51.56
2022-08-11T04:55:21.762Z,51.78
2022-08-11T04:58:54.595Z,52.79
2022-08-11T05:02:35.588Z,53.40
2022-08-11T05:06:14.732Z,53.38
2022-08-11T05:09:25.311Z,53.04
2022-08-11T05:12:36.435Z,53.32
2022-08-11T05:16:08.158Z,52.98
2022-08-11T05:19:35.434Z,52.46
2022-08-11T05:23:02.277Z,52.79
2022-08-11T05:26:46.974Z,51.73
2022-08-11T05:30:16.429Z,51.84
2022-08-11T05:33:44.157Z,51.64
2022-08-11T05:36:50.848Z,50.60
2022-08-11T05:40:18.618Z,49.41
2022-08-11T05:44:20.329Z,49.04
2022-08-11T05:47:23.367Z,48.72
2022-08-11T05:50:44.629Z,48.80
2022-08-11T05:54:28.962Z,48.90
2022-08-11T05:57:49.927Z,47.89
2022-08-11T06:00:54.104Z,48.02
2022-08-11T06:04:17.259Z,47.35
2022-08-11T06:07:27.082Z,47.22
2022-08-11T06:10:47.796Z,47.37
2022-08-11T06:13:50.447Z,47.59
2022-08-11T06:16:56.558Z,47.90
2022-08-11T06:20:09.677Z,48.23
2022-08-11T06:23:11.943Z,47.47
2022-08-11T06:26:15.618Z,46.94
2022-08-11T06:29:18.842Z,46.20
2022-08-11T06:32:25.390Z,46.36
2022-08-11T06:35:48.314Z,46.67
2022-08-11T06:39:10.102Z,45.81
2022-08-11T06:42:24.955Z,45.95
2022-08-11T06:45:28.490Z,44.96
2022-08-11T06:48:33.088Z,43.66
2022-08-11T06:51:38.465Z,42.72
2022-08-11T06:55:04.274Z,43.26
2022-08-11T06:58:25.546Z,43.29
2022-08-11T07:01:46.352Z,42.09
2022-08-11T07:05:11.636Z,42.16
2022-08-11T07:08:56.697Z,41.97
2022-08-11T07:12:36.180Z,41.03
2022-08-11T07:16:10.819Z,41.24
2022-08-11T07:19:27.257Z,40.84
2022-08-11T07:23:07.748Z,41.50
2022-08-11T07:26:30.829Z,41.16
2022-08-11T07:29:33.038Z,40.33
2022-08-11T07:32:53.714Z,40.56
2022-08-11T07:36:00.138Z,40.57
2022-08-11T07:39:03.163Z,40.24
2022-08-11T07:42:10.648Z,39.51
2022-08-11T07:45:32.035Z,39.38
2022-08-11T07:48:53.114Z,38.33
2022-08-11T07:52:14.678Z,38.86
2022-08-11T07:55:18.194Z,38.91
2022-08-11T07:58:45.374Z,38.40
2022-08-11T08:02:13.411Z,37.96
2022-08-11T08:05:36.714Z,36.66
2022-08-11T08:08:59.839Z,37.08
2022-08-11T08:12:23.912Z,37.13
2022-08-11T08:15:44.428Z,37.39
2022-08-11T08:18:46.702Z,35.55
2022-08-11T08:21:49.280Z,34.86
2022-08-11T08:24:52.341Z,34.49
2022-08-11T08:27:56.477Z,34.98
2022-08-11T08:30:58.581Z,34.67
2022-08-11T08:34:01.311Z,35.27
2022-08-11T08:37:16.199Z,36.19
2022-08-11T08:40:27.878Z,35.01
2022-08-11T08:43:32.592Z,34.42
2022-08-11T08:46:59.140Z,33.69
2022-08-11T08:50:05.630Z,33.24
2022-08-11T08:53:09.082Z,32.47
2022-08-11T08:56:11.710Z,33.23
2022-08-11T08:59:15.866Z,32.90
2022-08-11T09:02:33.979Z,32.32
2022-08-11T09:05:37.646Z,32.79
2022-08-11T09:08:40.908Z,33.05
2022-08-11T09:11:51.222Z,32.50
2022-08-11T09:15:03.629Z,31.53
2022-08-11T09:18:09.790Z,32.11
2022-08-11T09:21:39.229Z,30.71
2022-08-11T09:24:57.694Z,29.77
2022-08-11T09:27:59.941Z,29.51
2022-08-11T09:31:02.549Z,30.16
2022-08-11T09:34:04.378Z,28.89
2022-08-11T09:37:28.642Z,29.25
2022-08-11T09:40:52.702Z,29.73
2022-08-11T09:44:19.333Z,27.56
2022-08-11T09:47:24.468Z,26.89
2022-08-11T09:50:26.787Z,28.14
2022-08-11T09:53:38.158Z,28.98
2022-08-11T09:57:05.291Z,28.05
2022-08-11T10:00:13.149Z,26.33
2022-08-11T10:03:22.200Z,27.56
2022-08-11T10:06:44.404Z,28.47
2022-08-11T10:09:58.982Z,27.05
2022-08-11T10:13:05.510Z,26.37
2022-08-11T10:16:30.071Z,25.54
2022-08-11T10:19:33.836Z,25.89
2022-08-11T10:22:54.805Z,24.97
2022-08-11T10:26:16.101Z,26.18
2022-08-11T10:29:37.684Z,27.12
2022-08-11T10:33:09.701Z,28.21
2022-08-11T10:36:16.869Z,27.83
2022-08-11T10:39:21.497Z,26.24
2022-08-11T10:42:57.427Z,26.46
2022-08-11T10:46:35.349Z,26.88
2022-08-11T10:49:37.623Z,25.98
2022-08-11T10:52:59.873Z,26.32
2022-08-11T10:56:22.241Z,24.39
2022-08-11T10:59:28.149Z,23.84
2022-08-11T11:02:30.167Z,24.22
2022-08-11T11:05:32.866Z,24.73
2022-08-11T11:08:57.702Z,25.11
2022-08-11T11:12:42.520Z,26.98
2022-08-11T11:16:05.267Z,26.35
2022-08-11T11:19:08.909Z,23.85
2022-08-11T11:22:33.894Z,23.48
2022-08-11T11:26:06.456Z,23.76
2022-08-11T11:29:37.847Z,25.13
2022-08-11T11:34:06.499Z,24.99
2022-08-11T11:37:12.386Z,24.16
2022-08-11T11:40:17.514Z,22.75
2022-08-11T11:43:19.508Z,25.01
2022-08-11T11:46:21.865Z,25.02
2022-08-11T11:49:27.259Z,21.91
2022-08-11T11:52:29.806Z,22.65
2022-08-11T11:55:32.099Z,23.35
2022-08-11T11:58:52.995Z,23.44
2022-08-11T12:01:56.261Z,24.18
2022-08-11T12:04:58.421Z,23.05
2022-08-11T12:08:18.122Z,22.13
2022-08-11T12:11:40.566Z,22.58
2022-08-11T12:14:45.328Z,21.70
2022-08-11T12:17:52.423Z,21.06
2022-08-11T12:20:54.661Z,22.16
2022-08-11T12:24:16.512Z,21.21
2022-08-11T12:27:25.045Z,21.24
2022-08-11T12:30:28.235Z,20.70
2022-08-11T12:33:30.104Z,20.66
2022-08-11T12:36:43.471Z,21.17
2022-08-11T12:40:16.400Z,20.36
2022-08-11T12:43:56.885Z,20.00
2022-08-11T12:47:01.969Z,18.92
2022-08-11T12:50:23.659Z,22.38
2022-08-11T12:53:29.942Z,22.13
2022-08-11T12:57:06.405Z,23.04
2022-08-11T13:00:28.478Z,22.48
2022-08-11T13:03:56.675Z,21.49
2022-08-11T13:06:59.215Z,22.80
2022-08-11T13:10:05.551Z,23.05
2022-08-11T13:13:54.418Z,22.88
2022-08-11T13:16:55.931Z,23.27
2022-08-11T13:19:59.447Z,23.50
2022-08-11T13:23:01.975Z,23.36
2022-08-11T13:26:06.551Z,22.79
2022-08-11T13:29:09.568Z,21.44
2022-08-11T13:32:13.653Z,22.06
2022-08-11T13:35:18.966Z,21.22
2022-08-11T13:38:22.195Z,22.78
2022-08-11T13:41:39.454Z,22.33
2022-08-11T13:44:42.568Z,20.35
2022-08-11T13:47:45.611Z,20.59
2022-08-11T13:51:06.707Z,21.57
2022-08-11T13:54:20.234Z,21.22
2022-08-11T13:58:18.289Z,21.35
2022-08-11T14:00:52.746Z,23.73
2022-08-11T14:04:29.760Z,20.61
2022-08-11T14:07:24.430Z,20.13
2022-08-11T14:10:29.562Z,20.91
2022-08-11T14:13:41.220Z,21.10
2022-08-11T14:16:45.483Z,21.11
2022-08-11T14:19:52.255Z,21.81
2022-08-11T14:22:54.216Z,22.72
2022-08-11T14:26:15.653Z,23.13
2022-08-11T14:32:27.702Z,21.17
2022-08-11T14:35:29.578Z,21.71
2022-08-11T14:38:35.563Z,22.06
2022-08-11T14:42:10.220Z,20.98
2022-08-11T14:45:57.938Z,21.90
2022-08-11T14:48:58.027Z,20.12
2022-08-11T14:52:00.167Z,21.42
2022-08-11T14:55:21.024Z,20.64
2022-08-11T14:58:25.651Z,20.67
2022-08-11T15:01:46.351Z,21.13
2022-08-11T15:04:48.469Z,22.48
2022-08-11T15:07:51.576Z,22.24
2022-08-11T15:10:53.418Z,22.95
2022-08-11T15:13:56.698Z,22.85
2022-08-11T15:17:11.696Z,23.00
2022-08-11T15:20:35.692Z,22.56
2022-08-11T15:23:58.280Z,23.25
2022-08-11T15:27:20.147Z,23.96
2022-08-11T15:30:42.767Z,23.46
2022-08-11T15:34:04.564Z,22.93
2022-08-11T15:37:26.800Z,25.04
2022-08-11T15:40:52.401Z,24.94
2022-08-11T15:44:15.245Z,25.51
2022-08-11T15:47:19.834Z,24.34
2022-08-11T15:50:21.908Z,24.58
2022-08-11T15:53:34.771Z,25.32
2022-08-11T15:56:41.207Z,25.13
2022-08-11T16:00:01.599Z,25.60
2022-08-11T16:04:05.698Z,25.48
2022-08-11T16:07:06.030Z,26.16
2022-08-11T16:10:14.018Z,26.11
2022-08-11T16:13:22.532Z,27.00
2022-08-11T16:16:24.899Z,27.37
2022-08-11T16:19:35.123Z,27.32
2022-08-11T16:22:57.218Z,27.12
2022-08-11T16:27:08.361Z,27.89
2022-08-11T16:29:31.389Z,28.04
2022-08-11T16:32:36.453Z,27.95
2022-08-11T16:35:59.048Z,27.31
2022-08-11T16:39:03.318Z,29.12
2022-08-11T16:43:09.848Z,27.99
2022-08-11T16:46:04.805Z,29.06
2022-08-11T16:49:12.251Z,28.83
2022-08-11T16:52:14.880Z,28.45
2022-08-11T16:55:51.685Z,28.69
2022-08-11T16:58:58.175Z,29.07
2022-08-11T17:02:08.987Z,29.77
2022-08-11T17:05:38.147Z,29.59
2022-08-11T17:09:07.633Z,29.72
2022-08-11T17:12:29.818Z,29.67
2022-08-11T17:16:01.293Z,29.98
2022-08-11T17:19:08.920Z,29.50
2022-08-11T17:22:29.037Z,30.07
2022-08-11T17:25:59.349Z,30.90
2022-08-11T17:29:01.103Z,31.90
2022-08-11T17:32:24.776Z,31.44
2022-08-11T17:35:32.902Z,31.74
2022-08-11T17:38:36.638Z,31.56
2022-08-11T17:41:58.391Z,31.48
2022-08-11T17:45:21.538Z,31.95
2022-08-11T17:48:27.963Z,31.81
2022-08-11T17:51:49.950Z,32.02
2022-08-11T17:55:13.368Z,32.10
2022-08-11T17:58:34.789Z,32.28
2022-08-11T18:01:39.852Z,32.66
2022-08-11T18:04:44.736Z,32.94
2022-08-11T18:08:07.177Z,33.08
2022-08-11T18:12:10.818Z,33.09
2022-08-11T18:15:12.030Z,33.03
2022-08-11T18:18:32.308Z,33.24
2022-08-11T18:22:08.291Z,33.24
2022-08-11T18:25:45.249Z,33.52
2022-08-11T18:29:10.208Z,33.63
2022-08-11T18:32:49.029Z,34.08
2022-08-11T18:36:17.671Z,34.28
2022-08-11T18:39:40.732Z,34.17
2022-08-11T18:43:04.140Z,33.89
2022-08-11T18:46:27.283Z,33.67
2022-08-11T18:50:02.387Z,33.90
2022-08-11T18:53:26.015Z,34.02
2022-08-11T18:56:48.407Z,34.23
2022-08-11T19:00:11.770Z,34.64
2022-08-11T19:03:43.394Z,35.01
2022-08-11T19:07:17.397Z,35.15
2022-08-11T19:10:41.955Z,35.85
2022-08-11T19:14:04.096Z,35.95
2022-08-11T19:17:44.746Z,35.95
2022-08-11T19:21:09.106Z,35.92
2022-08-11T19:24:32.630Z,36.17
2022-08-11T19:27:53.515Z,36.47
2022-08-11T19:31:15.530Z,36.79
2022-08-11T19:34:39.285Z,36.95
2022-08-11T19:38:01.765Z,37.17
2022-08-11T19:41:56.171Z,37.00
2022-08-11T19:45:04.427Z,37.17
2022-08-11T19:48:32.771Z,37.63
2022-08-11T19:51:55.582Z,37.79
2022-08-11T19:55:16.679Z,38.41
2022-08-11T19:58:37.282Z,40.11
2022-08-11T20:02:12.870Z,39.52
2022-08-11T20:05:34.735Z,39.28
2022-08-11T20:09:00.254Z,38.94
2022-08-11T20:12:24.221Z,40.36
2022-08-11T20:15:46.592Z,40.76
2022-08-11T20:19:10.040Z,42.95
2022-08-11T20:22:33.034Z,44.22
2022-08-11T20:25:59.156Z,45.33
2022-08-11T20:29:26.083Z,43.16
2022-08-11T20:32:47.038Z,42.72
2022-08-11T20:36:08.680Z,41.59
2022-08-11T20:39:30.023Z,42.30
2022-08-11T20:42:53.931Z,42.12
2022-08-11T20:46:14.588Z,41.72
2022-08-11T20:49:45.301Z,42.11
2022-08-11T20:53:14.206Z,41.93
2022-08-11T20:56:38.330Z,41.96
2022-08-11T21:00:02.628Z,42.13
2022-08-11T21:03:35.915Z,42.32
2022-08-11T21:06:58.096Z,41.81
2022-08-11T21:10:20.062Z,41.74
2022-08-11T21:13:51.414Z,42.59
2022-08-11T21:17:27.699Z,43.75
2022-08-11T21:20:50.679Z,43.96
2022-08-11T21:24:13.460Z,44.39
2022-08-11T21:27:38.455Z,44.34
2022-08-11T21:30:58.717Z,45.71
2022-08-11T21:34:19.827Z,44.00
2022-08-11T21:37:41.566Z,43.56
2022-08-11T21:41:03.809Z,44.69
2022-08-11T21:44:25.491Z,45.00
2022-08-11T21:47:47.342Z,44.80
2022-08-11T21:51:07.855Z,44.71
2022-08-11T21:54:29.635Z,43.70
2022-08-11T21:57:50.675Z,43.40
2022-08-11T22:01:11.980Z,43.15
2022-08-11T22:04:33.003Z,43.17
2022-08-11T22:07:53.289Z,42.95
2022-08-11T22:11:14.291Z,43.55
2022-08-11T22:14:34.783Z,44.01
2022-08-11T22:17:58.049Z,44.24
2022-08-11T22:22:02.524Z,44.67
2022-08-11T22:25:00.400Z,44.38
2022-08-11T22:28:20.840Z,45.62
2022-08-11T22:31:41.651Z,45.81
2022-08-11T22:35:02.799Z,45.85
2022-08-11T22:38:23.666Z,45.82
2022-08-11T22:41:44.364Z,45.78
2022-08-11T22:45:04.598Z,46.18
2022-08-11T22:48:27.642Z,46.44
2022-08-11T22:51:48.362Z,47.37
2022-08-11T22:55:09.960Z,46.25
2022-08-11T22:58:32.497Z,46.99
2022-08-11T23:01:55.461Z,47.75
2022-08-11T23:05:17.999Z,47.73
2022-08-11T23:08:39.560Z,47.40
2022-08-11T23:12:06.730Z,47.44
2022-08-11T23:15:29.163Z,47.66
2022-08-11T23:18:49.762Z,47.16
2022-08-11T23:22:10.315Z,47.20
2022-08-11T23:25:30.769Z,48.59
2022-08-11T23:28:52.041Z,49.18
2022-08-11T23:32:12.955Z,48.60
2022-08-11T23:35:39.211Z,48.52
2022-08-11T23:39:12.167Z,49.44
2022-08-11T23:42:32.280Z,48.29
2022-08-11T23:45:56.787Z,49.69
2022-08-11T23:49:22.381Z,50.19
2022-08-11T23:52:45.379Z,50.26
2022-08-11T23:56:05.635Z,49.43
2022-08-11T23:59:26.735Z,49.84
